createdAt,value
2022-10-05T00:00:23.906Z,48.93
2022-10-05T00:01:00.818Z,49.17
2022-10-05T00:01:35.385Z,48.76
2022-10-05T00:02:15.112Z,49.01
2022-10-05T00:02:50.182Z,48.73
2022-10-05T00:03:22.819Z,48.99
2022-10-05T00:03:59.266Z,48.52
2022-10-05T00:04:35.593Z,48.54
2022-10-05T00:05:18.899Z,48.96
2022-10-05T00:05:51.264Z,48.65
2022-10-05T00:06:31.563Z,48.76
2022-10-05T00:07:09.984Z,48.66
2022-10-05T00:07:42.176Z,48.53
2022-10-05T00:08:18.704Z,48.56
2022-10-05T00:08:50.877Z,48.93
2022-10-05T00:09:23.462Z,48.41
2022-10-05T00:10:00.709Z,48.81
2022-10-05T00:10:33.677Z,48.50
2022-10-05T00:11:06.968Z,48.38
2022-10-05T00:11:41.774Z,48.48
2022-10-05T00:12:15.823Z,48.26
2022-10-05T00:12:48.896Z,48.48
2022-10-05T00:13:28.554Z,48.36
2022-10-05T00:14:00.762Z,48.37
2022-10-05T00:14:35.833Z,48.76
2022-10-05T00:15:14.867Z,48.71
2022-10-05T00:15:47.110Z,48.56
2022-10-05T00:16:20.941Z,48.78
2022-10-05T00:16:55.835Z,48.36
2022-10-05T00:17:30.036Z,48.26
2022-10-05T00:18:03.320Z,48.26
2022-10-05T00:18:38.108Z,48.62
2022-10-05T00:19:20.253Z,48.31
2022-10-05T00:19:55.564Z,48.56
2022-10-05T00:20:27.744Z,48.61
2022-10-05T00:21:00.372Z,48.59
2022-10-05T00:21:36.525Z,48.16
2022-10-05T00:22:12.569Z,48.50
2022-10-05T00:22:44.801Z,48.26
2022-10-05T00:23:24.152Z,48.54
2022-10-05T00:23:57.584Z,48.23
2022-10-05T00:24:30.344Z,48.28
2022-10-05T00:25:06.497Z,48.08
2022-10-05T00:25:39.372Z,48.12
2022-10-05T00:26:14.548Z,48.45
2022-10-05T00:26:54.211Z,48.15
2022-10-05T00:27:32.908Z,48.23
2022-10-05T00:28:13.203Z,48.26
2022-10-05T00:28:51.009Z,48.03
2022-10-05T00:29:23.912Z,48.48
2022-10-05T00:29:59.547Z,48.40
2022-10-05T00:30:35.952Z,48.16
2022-10-05T00:31:11.782Z,48.36
2022-10-05T00:31:44.145Z,48.26
2022-10-05T00:32:19.120Z,48.49
2022-10-05T00:32:56.032Z,48.28
2022-10-05T00:33:31.121Z,48.04
2022-10-05T00:34:05.932Z,48.42
2022-10-05T00:34:38.772Z,47.95
2022-10-05T00:35:11.900Z,48.09
2022-10-05T00:35:46.751Z,48.40
2022-10-05T00:36:19.444Z,48.16
2022-10-05T00:36:51.718Z,48.09
2022-10-05T00:37:26.513Z,47.99
2022-10-05T00:37:58.726Z,48.44
2022-10-05T00:38:31.117Z,48.36
2022-10-05T00:39:06.176Z,48.38
2022-10-05T00:39:39.727Z,48.18
2022-10-05T00:40:28.177Z,47.91
2022-10-05T00:41:08.683Z,47.95
2022-10-05T00:41:57.082Z,47.95
2022-10-05T00:42:40.426Z,47.94
2022-10-05T00:43:41.285Z,48.23
2022-10-05T00:44:36.753Z,47.91
2022-10-05T00:45:13.580Z,48.28
2022-10-05T00:45:48.621Z,47.93
2022-10-05T00:46:27.321Z,48.33
2022-10-05T00:47:10.607Z,47.90
2022-10-05T00:47:51.024Z,47.93
2022-10-05T00:48:33.088Z,48.34
2022-10-05T00:49:10.279Z,48.08
2022-10-05T00:49:57.149Z,47.90
2022-10-05T00:50:40.911Z,48.34
2022-10-05T00:51:24.615Z,48.11
2022-10-05T00:52:07.264Z,48.02
2022-10-05T00:52:50.721Z,47.93
2022-10-05T00:53:32.060Z,47.97
2022-10-05T00:54:19.868Z,48.11
2022-10-05T00:55:02.828Z,48.26
2022-10-05T00:55:47.929Z,48.30
2022-10-05T00:56:38.801Z,48.36
2022-10-05T00:57:25.220Z,47.98
2022-10-05T00:58:05.352Z,48.38
2022-10-05T00:58:51.232Z,48.24
2022-10-05T00:59:37.041Z,48.44
2022-10-05T01:00:14.005Z,48.15
2022-10-05T01:00:51.509Z,48.42
2022-10-05T01:01:29.958Z,48.28
2022-10-05T01:02:10.149Z,48.10
2022-10-05T01:02:52.048Z,48.14
2022-10-05T01:03:32.548Z,48.20
2022-10-05T01:04:11.365Z,48.29
2022-10-05T01:04:48.544Z,48.31
2022-10-05T01:05:36.222Z,48.34
2022-10-05T01:06:15.107Z,48.02
2022-10-05T01:06:59.340Z,48.19
2022-10-05T01:07:40.460Z,47.83
2022-10-05T01:08:22.577Z,48.19
2022-10-05T01:09:03.699Z,47.97
2022-10-05T01:09:42.017Z,48.16
2022-10-05T01:10:23.620Z,48.06
2022-10-05T01:11:02.177Z,47.81
2022-10-05T01:11:40.033Z,48.07
2022-10-05T01:12:19.526Z,47.81
2022-10-05T01:12:58.544Z,47.87
2022-10-05T01:13:36.936Z,47.87
2022-10-05T01:14:17.581Z,47.98
2022-10-05T01:14:56.505Z,47.92
2022-10-05T01:15:33.379Z,47.80
2022-10-05T01:16:11.637Z,48.16
2022-10-05T01:16:51.001Z,48.07
2022-10-05T01:17:28.355Z,47.92
2022-10-05T01:18:06.986Z,47.81
2022-10-05T01:18:45.688Z,48.07
2022-10-05T01:19:44.191Z,48.07
2022-10-05T01:20:26.071Z,48.22
2022-10-05T01:21:07.476Z,47.87
2022-10-05T01:21:47.680Z,47.87
2022-10-05T01:22:30.610Z,47.90
2022-10-05T01:23:32.664Z,48.00
2022-10-05T01:24:24.773Z,48.15
2022-10-05T01:25:10.996Z,48.14
2022-10-05T01:25:55.184Z,48.03
2022-10-05T01:27:02.846Z,48.31
2022-10-05T01:27:51.337Z,48.21
2022-10-05T01:28:25.010Z,47.95
2022-10-05T01:29:05.649Z,47.94
2022-10-05T01:29:41.608Z,48.14
2022-10-05T01:30:15.360Z,47.95
2022-10-05T01:31:03.845Z,48.00
2022-10-05T01:31:42.055Z,48.05
2022-10-05T01:32:19.424Z,47.94
2022-10-05T01:32:58.914Z,48.38
2022-10-05T01:33:36.288Z,48.27
2022-10-05T01:34:13.979Z,48.11
2022-10-05T01:34:55.265Z,48.19
2022-10-05T01:35:40.224Z,48.03
2022-10-05T01:36:19.179Z,48.29
2022-10-05T01:36:59.384Z,48.13
2022-10-05T01:37:49.375Z,48.17
2022-10-05T01:38:34.637Z,47.88
2022-10-05T01:39:11.697Z,47.87
2022-10-05T01:39:49.560Z,47.84
2022-10-05T01:40:34.136Z,47.74
2022-10-05T01:41:19.610Z,48.00
2022-10-05T01:42:02.169Z,47.75
2022-10-05T01:42:40.541Z,47.87
2022-10-05T01:43:20.664Z,47.69
2022-10-05T01:44:01.885Z,47.82
2022-10-05T01:44:39.427Z,48.08
2022-10-05T01:45:15.136Z,47.72
2022-10-05T01:45:59.023Z,48.10
2022-10-05T01:46:36.692Z,47.67
2022-10-05T01:47:13.544Z,48.16
2022-10-05T01:47:50.268Z,47.97
2022-10-05T01:48:28.916Z,47.71
2022-10-05T01:49:17.125Z,47.83
2022-10-05T01:49:58.195Z,48.16
2022-10-05T01:50:41.206Z,48.29
2022-10-05T01:51:18.853Z,48.26
2022-10-05T01:52:02.566Z,48.16
2022-10-05T01:52:42.283Z,48.25
2022-10-05T01:53:21.300Z,47.92
2022-10-05T01:54:04.855Z,47.91
2022-10-05T01:54:43.001Z,48.02
2022-10-05T01:55:20.466Z,48.04
2022-10-05T01:55:59.638Z,48.14
2022-10-05T01:56:39.093Z,47.75
2022-10-05T01:57:23.661Z,47.97
2022-10-05T01:58:08.799Z,48.07
2022-10-05T01:58:49.967Z,48.03
2022-10-05T01:59:31.843Z,47.85
2022-10-05T02:00:07.863Z,47.97
2022-10-05T02:00:57.912Z,47.94
2022-10-05T02:01:35.922Z,47.93
2022-10-05T02:02:10.339Z,47.90
2022-10-05T02:02:48.653Z,47.93
2022-10-05T02:03:24.756Z,48.04
2022-10-05T02:04:03.635Z,48.21
2022-10-05T02:05:01.493Z,48.06
2022-10-05T02:05:36.349Z,48.30
2022-10-05T02:06:12.979Z,48.02
2022-10-05T02:06:50.867Z,48.02
2022-10-05T02:07:25.404Z,47.99
2022-10-05T02:08:00.998Z,47.69
2022-10-05T02:08:40.943Z,47.73
2022-10-05T02:09:15.642Z,47.78
2022-10-05T02:09:53.156Z,48.03
2022-10-05T02:10:32.137Z,48.09
2022-10-05T02:11:07.787Z,48.22
2022-10-05T02:12:16.028Z,48.12
2022-10-05T02:13:10.843Z,48.00
2022-10-05T02:14:11.080Z,48.10
2022-10-05T02:15:08.229Z,47.73
2022-10-05T02:16:04.546Z,48.02
2022-10-05T02:16:59.734Z,47.71
2022-10-05T02:17:59.427Z,47.75
2022-10-05T02:18:55.045Z,47.97
2022-10-05T02:19:53.313Z,47.83
2022-10-05T02:20:46.693Z,48.00
2022-10-05T02:21:42.265Z,48.02
2022-10-05T02:22:37.254Z,48.12
2022-10-05T02:23:35.826Z,47.73
2022-10-05T02:24:11.992Z,48.10
2022-10-05T02:24:48.384Z,47.72
2022-10-05T02:25:25.668Z,48.02
2022-10-05T02:25:58.636Z,48.03
2022-10-05T02:26:31.865Z,47.56
2022-10-05T02:27:07.883Z,48.05
2022-10-05T02:27:46.224Z,47.62
2022-10-05T02:28:23.048Z,47.96
2022-10-05T02:28:59.779Z,47.60
2022-10-05T02:29:38.140Z,47.54
2022-10-05T02:30:16.229Z,47.50
2022-10-05T02:30:57.064Z,47.46
2022-10-05T02:31:31.524Z,47.56
2022-10-05T02:32:06.696Z,47.33
2022-10-05T02:32:45.393Z,47.27
2022-10-05T02:33:20.162Z,47.35
2022-10-05T02:33:55.051Z,47.49
2022-10-05T02:34:29.773Z,47.01
2022-10-05T02:35:14.364Z,46.94
2022-10-05T02:35:49.615Z,46.94
2022-10-05T02:36:26.325Z,46.85
2022-10-05T02:37:17.697Z,46.68
2022-10-05T02:38:00.093Z,46.52
2022-10-05T02:38:37.456Z,46.58
2022-10-05T02:39:15.120Z,46.88
2022-10-05T02:40:01.660Z,46.84
2022-10-05T02:40:41.141Z,46.61
2022-10-05T02:41:21.666Z,46.50
2022-10-05T02:41:57.320Z,46.50
2022-10-05T02:42:33.638Z,46.73
2022-10-05T02:43:19.688Z,46.41
2022-10-05T02:43:57.646Z,46.39
2022-10-05T02:44:40.727Z,46.54
2022-10-05T02:45:18.808Z,46.30
2022-10-05T02:45:57.322Z,46.13
2022-10-05T02:46:37.304Z,46.56
2022-10-05T02:47:15.985Z,46.19
2022-10-05T02:47:54.700Z,46.50
2022-10-05T02:48:37.596Z,46.45
2022-10-05T02:49:19.960Z,46.36
2022-10-05T02:49:56.773Z,46.02
2022-10-05T02:50:38.763Z,45.96
2022-10-05T02:51:17.427Z,46.05
2022-10-05T02:51:58.133Z,46.25
2022-10-05T02:52:42.271Z,46.17
2022-10-05T02:53:22.796Z,46.29
2022-10-05T02:54:03.057Z,46.29
2022-10-05T02:54:46.744Z,45.91
2022-10-05T02:55:23.266Z,46.31
2022-10-05T02:56:03.828Z,46.20
2022-10-05T02:56:44.243Z,46.17
2022-10-05T02:57:20.886Z,46.12
2022-10-05T02:57:59.385Z,46.24
2022-10-05T02:58:41.623Z,46.36
2022-10-05T02:59:17.725Z,46.36
2022-10-05T02:59:57.609Z,46.34
2022-10-05T03:00:34.729Z,46.00
2022-10-05T03:01:15.954Z,46.20
2022-10-05T03:01:51.329Z,46.10
2022-10-05T03:02:29.915Z,46.36
2022-10-05T03:03:06.535Z,46.79
2022-10-05T03:03:42.612Z,47.61
2022-10-05T03:04:26.128Z,47.30
2022-10-05T03:05:05.139Z,47.00
2022-10-05T03:05:41.929Z,46.21
2022-10-05T03:06:22.489Z,45.82
2022-10-05T03:07:01.317Z,45.93
2022-10-05T03:07:39.824Z,45.74
2022-10-05T03:08:16.950Z,45.45
2022-10-05T03:08:55.533Z,45.04
2022-10-05T03:09:32.875Z,44.75
2022-10-05T03:10:09.208Z,44.38
2022-10-05T03:10:49.081Z,44.06
2022-10-05T03:11:26.598Z,44.12
2022-10-05T03:12:03.948Z,43.83
2022-10-05T03:12:55.836Z,43.38
2022-10-05T03:13:34.864Z,43.75
2022-10-05T03:14:10.540Z,43.33
2022-10-05T03:14:49.320Z,43.22
2022-10-05T03:15:39.475Z,43.08
2022-10-05T03:16:30.408Z,43.13
2022-10-05T03:17:09.796Z,43.04
2022-10-05T03:17:50.161Z,43.10
2022-10-05T03:18:30.888Z,42.66
2022-10-05T03:19:17.899Z,42.96
2022-10-05T03:20:08.724Z,42.69
2022-10-05T03:20:49.931Z,42.52
2022-10-05T03:21:34.304Z,42.68
2022-10-05T03:22:16.988Z,42.71
2022-10-05T03:22:51.532Z,42.73
2022-10-05T03:23:31.745Z,42.44
2022-10-05T03:24:18.300Z,42.39
2022-10-05T03:25:06.085Z,42.54
2022-10-05T03:26:07.927Z,42.40
2022-10-05T03:26:45.117Z,42.67
2022-10-05T03:27:31.011Z,42.53
2022-10-05T03:28:07.627Z,42.27
2022-10-05T03:28:46.926Z,42.27
2022-10-05T03:29:29.228Z,42.15
2022-10-05T03:30:05.769Z,42.44
2022-10-05T03:30:49.522Z,42.19
2022-10-05T03:31:30.338Z,42.20
2022-10-05T03:32:09.519Z,42.47
2022-10-05T03:32:51.434Z,42.07
2022-10-05T03:33:32.611Z,42.29
2022-10-05T03:34:08.047Z,42.36
2022-10-05T03:34:45.324Z,42.09
2022-10-05T03:35:26.220Z,42.16
2022-10-05T03:36:08.650Z,42.26
2022-10-05T03:36:45.560Z,42.19
2022-10-05T03:37:23.868Z,42.33
2022-10-05T03:38:08.900Z,41.95
2022-10-05T03:38:44.783Z,42.04
2022-10-05T03:39:23.453Z,41.83
2022-10-05T03:40:04.936Z,42.60
2022-10-05T03:40:40.445Z,42.20
2022-10-05T03:41:18.379Z,42.24
2022-10-05T03:41:57.881Z,42.01
2022-10-05T03:42:35.417Z,42.46
2022-10-05T03:43:23.504Z,42.38
2022-10-05T03:44:18.187Z,42.13
2022-10-05T03:44:56.171Z,41.89
2022-10-05T03:45:31.334Z,41.92
2022-10-05T03:46:12.797Z,41.99
2022-10-05T03:46:53.376Z,41.80
2022-10-05T03:47:39.628Z,42.24
2022-10-05T03:48:15.400Z,41.78
2022-10-05T03:48:53.288Z,42.19
2022-10-05T03:49:36.335Z,41.99
2022-10-05T03:50:24.227Z,42.04
2022-10-05T03:51:04.867Z,41.50
2022-10-05T03:51:40.841Z,41.41
2022-10-05T03:52:15.785Z,41.27
2022-10-05T03:52:53.173Z,42.12
2022-10-05T03:53:28.564Z,43.16
2022-10-05T03:54:08.447Z,43.04
2022-10-05T03:54:43.760Z,43.04
2022-10-05T03:55:23.438Z,43.08
2022-10-05T03:56:03.216Z,42.63
2022-10-05T03:56:39.381Z,42.45
2022-10-05T03:57:17.442Z,42.74
2022-10-05T03:57:50.769Z,42.60
2022-10-05T03:58:30.496Z,42.19
2022-10-05T03:59:09.503Z,42.11
2022-10-05T03:59:47.528Z,42.45
2022-10-05T04:00:25.973Z,42.24
2022-10-05T04:01:10.998Z,41.34
2022-10-05T04:01:46.138Z,41.76
2022-10-05T04:02:25.942Z,41.51
2022-10-05T04:03:02.207Z,41.86
2022-10-05T04:03:37.690Z,42.43
2022-10-05T04:04:15.054Z,42.48
2022-10-05T04:04:50.154Z,42.93
2022-10-05T04:05:25.629Z,43.03
2022-10-05T04:06:04.013Z,43.16
2022-10-05T04:06:42.298Z,43.11
2022-10-05T04:07:22.628Z,43.56
2022-10-05T04:08:05.445Z,43.67
2022-10-05T04:08:47.610Z,43.75
2022-10-05T04:09:24.793Z,43.85
2022-10-05T04:10:00.052Z,44.14
2022-10-05T04:10:37.846Z,44.34
2022-10-05T04:11:12.884Z,44.60
2022-10-05T04:11:54.025Z,44.62
2022-10-05T04:12:30.892Z,44.48
2022-10-05T04:13:07.297Z,44.50
2022-10-05T04:13:47.303Z,44.94
2022-10-05T04:14:23.288Z,44.96
2022-10-05T04:15:03.339Z,44.95
2022-10-05T04:15:45.425Z,45.08
2022-10-05T04:16:24.969Z,44.98
2022-10-05T04:17:06.284Z,45.02
2022-10-05T04:17:40.880Z,44.81
2022-10-05T04:18:21.315Z,45.00
2022-10-05T04:19:01.013Z,45.15
2022-10-05T04:19:37.716Z,45.00
2022-10-05T04:20:18.217Z,44.86
2022-10-05T04:21:00.615Z,45.14
2022-10-05T04:21:38.884Z,44.99
2022-10-05T04:22:18.276Z,45.46
2022-10-05T04:22:59.483Z,45.41
2022-10-05T04:23:40.196Z,45.42
2022-10-05T04:24:18.924Z,45.01
2022-10-05T04:24:56.749Z,45.17
2022-10-05T04:25:31.335Z,45.19
2022-10-05T04:26:09.852Z,45.14
2022-10-05T04:26:50.994Z,45.45
2022-10-05T04:27:30.173Z,45.42
2022-10-05T04:28:07.883Z,45.21
2022-10-05T04:28:49.001Z,45.43
2022-10-05T04:29:32.885Z,45.70
2022-10-05T04:30:09.165Z,45.52
2022-10-05T04:30:44.560Z,45.47
2022-10-05T04:31:32.342Z,45.70
2022-10-05T04:32:20.881Z,45.76
2022-10-05T04:32:59.055Z,45.50
2022-10-05T04:33:35.942Z,45.58
2022-10-05T04:34:19.316Z,45.64
2022-10-05T04:35:04.542Z,45.30
2022-10-05T04:35:51.432Z,45.71
2022-10-05T04:36:34.336Z,45.28
2022-10-05T04:37:10.673Z,45.30
2022-10-05T04:37:49.133Z,45.57
2022-10-05T04:38:32.611Z,45.51
2022-10-05T04:39:16.247Z,45.64
2022-10-05T04:40:20.698Z,45.65
2022-10-05T04:41:01.951Z,45.47
2022-10-05T04:41:52.398Z,45.72
2022-10-05T04:42:32.386Z,45.47
2022-10-05T04:43:08.952Z,45.37
2022-10-05T04:43:49.818Z,45.40
2022-10-05T04:44:59.308Z,45.47
2022-10-05T04:45:43.608Z,45.46
2022-10-05T04:46:29.096Z,45.41
2022-10-05T04:47:17.293Z,45.82
2022-10-05T04:48:22.701Z,45.87
2022-10-05T04:49:15.279Z,45.46
2022-10-05T04:50:06.041Z,45.58
2022-10-05T04:50:50.877Z,45.61
2022-10-05T04:51:37.925Z,45.61
2022-10-05T04:52:19.429Z,45.77
2022-10-05T04:52:57.300Z,45.63
2022-10-05T04:53:34.873Z,45.54
2022-10-05T04:54:17.200Z,45.76
2022-10-05T04:54:56.628Z,45.88
2022-10-05T04:55:34.692Z,45.89
2022-10-05T04:56:10.092Z,45.92
2022-10-05T04:56:48.104Z,45.72
2022-10-05T04:57:25.177Z,45.57
2022-10-05T04:58:07.326Z,45.78
2022-10-05T04:58:59.344Z,45.91
2022-10-05T05:00:13.819Z,45.88
2022-10-05T05:00:54.568Z,45.33
2022-10-05T05:01:43.560Z,44.96
2022-10-05T05:02:27.385Z,45.15
2022-10-05T05:03:16.099Z,45.30
2022-10-05T05:04:10.202Z,45.71
2022-10-05T05:05:05.673Z,46.10
2022-10-05T05:06:15.493Z,46.24
2022-10-05T05:06:47.929Z,46.47
2022-10-05T05:07:33.121Z,46.56
2022-10-05T05:08:15.757Z,46.31
2022-10-05T05:09:12.851Z,46.90
2022-10-05T05:10:17.956Z,46.59
2022-10-05T05:11:03.819Z,47.13
2022-10-05T05:11:43.877Z,47.13
2022-10-05T05:12:28.853Z,47.22
2022-10-05T05:13:14.077Z,46.95
2022-10-05T05:14:15.812Z,47.20
2022-10-05T05:15:10.688Z,47.27
2022-10-05T05:15:48.883Z,47.32
2022-10-05T05:16:31.644Z,47.34
2022-10-05T05:17:17.900Z,47.34
2022-10-05T05:18:15.764Z,47.02
2022-10-05T05:19:12.745Z,47.30
2022-10-05T05:19:52.256Z,47.34
2022-10-05T05:20:33.845Z,47.35
2022-10-05T05:21:16.369Z,47.35
2022-10-05T05:22:02.320Z,47.19
2022-10-05T05:22:46.596Z,47.44
2022-10-05T05:23:25.903Z,47.42
2022-10-05T05:24:07.922Z,47.35
2022-10-05T05:24:46.991Z,47.36
2022-10-05T05:25:39.816Z,47.32
2022-10-05T05:26:17.518Z,47.15
2022-10-05T05:27:00.883Z,47.50
2022-10-05T05:27:50.495Z,47.20
2022-10-05T05:28:28.924Z,47.51
2022-10-05T05:29:09.419Z,47.52
2022-10-05T05:29:53.081Z,47.45
2022-10-05T05:30:29.397Z,47.27
2022-10-05T05:31:09.065Z,47.36
2022-10-05T05:31:48.349Z,47.39
2022-10-05T05:32:26.868Z,47.01
2022-10-05T05:33:18.270Z,47.36
2022-10-05T05:34:00.449Z,47.01
2022-10-05T05:34:41.788Z,47.42
2022-10-05T05:35:28.588Z,47.25
2022-10-05T05:36:38.186Z,47.11
2022-10-05T05:37:17.360Z,47.42
2022-10-05T05:37:55.037Z,47.10
2022-10-05T05:38:34.367Z,47.08
2022-10-05T05:39:20.408Z,47.15
2022-10-05T05:40:03.965Z,47.20
2022-10-05T05:40:42.845Z,47.15
2022-10-05T05:41:25.090Z,47.16
2022-10-05T05:42:02.583Z,47.44
2022-10-05T05:42:47.030Z,47.41
2022-10-05T05:43:24.668Z,47.47
2022-10-05T05:44:06.584Z,47.19
2022-10-05T05:44:46.843Z,47.12
2022-10-05T05:45:34.811Z,47.20
2022-10-05T05:46:15.085Z,47.16
2022-10-05T05:47:03.622Z,47.33
2022-10-05T05:47:42.195Z,47.15
2022-10-05T05:48:19.704Z,47.13
2022-10-05T05:48:52.582Z,47.29
2022-10-05T05:49:32.714Z,47.13
2022-10-05T05:50:19.331Z,47.37
2022-10-05T05:50:58.444Z,47.02
2022-10-05T05:51:38.351Z,47.49
2022-10-05T05:52:17.654Z,47.35
2022-10-05T05:52:56.823Z,47.04
2022-10-05T05:53:32.937Z,46.98
2022-10-05T05:54:30.175Z,47.38
2022-10-05T05:55:07.328Z,47.01
2022-10-05T05:55:41.887Z,47.30
2022-10-05T05:56:18.428Z,47.25
2022-10-05T05:56:53.503Z,47.01
2022-10-05T05:57:28.408Z,47.07
2022-10-05T05:58:06.833Z,47.37
2022-10-05T05:58:45.144Z,47.24
2022-10-05T05:59:23.456Z,47.19
2022-10-05T06:00:03.860Z,47.54
2022-10-05T06:00:51.599Z,47.03
2022-10-05T06:01:33.280Z,47.39
2022-10-05T06:02:12.441Z,47.13
2022-10-05T06:02:51.552Z,47.21
2022-10-05T06:03:31.800Z,47.63
2022-10-05T06:04:12.057Z,47.62
2022-10-05T06:04:47.668Z,47.48
2022-10-05T06:05:41.800Z,47.65
2022-10-05T06:06:17.050Z,47.44
2022-10-05T06:06:54.408Z,47.51
2022-10-05T06:07:32.727Z,47.34
2022-10-05T06:08:13.716Z,47.35
2022-10-05T06:08:48.976Z,47.44
2022-10-05T06:09:47.645Z,47.45
2022-10-05T06:10:35.029Z,47.79
2022-10-05T06:11:19.217Z,47.68
2022-10-05T06:11:54.025Z,47.76
2022-10-05T06:12:32.994Z,47.55
2022-10-05T06:13:09.869Z,47.82
2022-10-05T06:13:43.174Z,47.77
2022-10-05T06:14:21.875Z,47.60
2022-10-05T06:14:57.126Z,48.01
2022-10-05T06:15:34.455Z,47.90
2022-10-05T06:16:15.881Z,47.92
2022-10-05T06:16:52.225Z,47.57
2022-10-05T06:17:32.094Z,48.09
2022-10-05T06:18:10.014Z,47.71
2022-10-05T06:18:50.965Z,48.19
2022-10-05T06:19:24.895Z,47.86
2022-10-05T06:20:05.334Z,47.78
2022-10-05T06:20:41.618Z,47.83
2022-10-05T06:21:17.003Z,48.14
2022-10-05T06:21:56.435Z,48.12
2022-10-05T06:22:33.568Z,48.04
2022-10-05T06:23:07.741Z,48.02
2022-10-05T06:23:46.324Z,48.13
2022-10-05T06:24:23.552Z,48.31
2022-10-05T06:25:04.989Z,48.21
2022-10-05T06:25:47.883Z,47.85
2022-10-05T06:26:32.967Z,48.26
2022-10-05T06:27:29.076Z,47.86
2022-10-05T06:28:05.256Z,48.24
2022-10-05T06:28:38.665Z,48.09
2022-10-05T06:29:19.649Z,47.87
2022-10-05T06:30:05.167Z,47.90
2022-10-05T06:30:47.253Z,48.10
2022-10-05T06:31:31.391Z,48.14
2022-10-05T06:32:07.349Z,47.96
2022-10-05T06:33:08.690Z,47.97
2022-10-05T06:33:48.897Z,48.16
2022-10-05T06:34:38.505Z,48.16
2022-10-05T06:35:22.577Z,48.36
2022-10-05T06:36:09.572Z,48.14
2022-10-05T06:36:48.973Z,48.15
2022-10-05T06:37:30.089Z,48.04
2022-10-05T06:38:20.057Z,48.26
2022-10-05T06:39:11.085Z,48.00
2022-10-05T06:40:00.865Z,48.00
2022-10-05T06:40:50.409Z,48.21
2022-10-05T06:41:36.387Z,48.04
2022-10-05T06:42:19.657Z,48.37
2022-10-05T06:43:25.086Z,48.43
2022-10-05T06:44:17.618Z,48.17
2022-10-05T06:44:54.932Z,47.97
2022-10-05T06:46:08.700Z,48.11
2022-10-05T06:47:01.127Z,48.07
2022-10-05T06:48:00.406Z,48.37
2022-10-05T06:49:18.965Z,47.97
2022-10-05T06:50:14.121Z,48.25
2022-10-05T06:51:07.808Z,48.09
2022-10-05T06:52:08.342Z,48.14
2022-10-05T06:53:02.415Z,48.54
2022-10-05T06:53:41.068Z,48.26
2022-10-05T06:54:25.839Z,48.41
2022-10-05T06:55:14.672Z,48.44
2022-10-05T06:55:54.322Z,48.49
2022-10-05T06:56:30.379Z,48.36
2022-10-05T06:57:13.019Z,48.53
2022-10-05T06:57:53.848Z,48.72
2022-10-05T06:58:37.856Z,48.69
2022-10-05T06:59:16.625Z,48.33
2022-10-05T06:59:57.115Z,48.78
2022-10-05T07:00:32.911Z,48.69
2022-10-05T07:01:11.110Z,48.76
2022-10-05T07:01:54.236Z,48.82
2022-10-05T07:02:31.357Z,48.98
2022-10-05T07:03:09.744Z,48.83
2022-10-05T07:03:57.367Z,48.90
2022-10-05T07:04:59.240Z,48.67
2022-10-05T07:05:51.968Z,48.57
2022-10-05T07:06:28.176Z,48.93
2022-10-05T07:07:05.981Z,48.93
2022-10-05T07:07:45.156Z,48.94
2022-10-05T07:08:21.168Z,48.59
2022-10-05T07:09:06.749Z,48.67
2022-10-05T07:09:46.371Z,48.42
2022-10-05T07:10:28.156Z,48.41
2022-10-05T07:11:07.240Z,48.71
2022-10-05T07:11:59.518Z,48.48
2022-10-05T07:12:45.745Z,48.50
2022-10-05T07:13:36.287Z,48.74
2022-10-05T07:14:29.391Z,48.38
2022-10-05T07:15:24.979Z,48.42
2022-10-05T07:16:02.163Z,48.36
2022-10-05T07:16:45.610Z,48.55
2022-10-05T07:17:28.453Z,48.75
2022-10-05T07:18:19.209Z,48.43
2022-10-05T07:19:02.458Z,48.77
2022-10-05T07:19:41.393Z,48.69
2022-10-05T07:20:20.183Z,48.62
2022-10-05T07:20:57.944Z,48.69
2022-10-05T07:21:39.550Z,48.66
2022-10-05T07:22:41.533Z,48.83
2022-10-05T07:23:28.959Z,48.61
2022-10-05T07:24:06.448Z,48.53
2022-10-05T07:24:42.277Z,48.62
2022-10-05T07:25:20.446Z,48.79
2022-10-05T07:26:00.815Z,48.84
2022-10-05T07:26:38.894Z,48.81
2022-10-05T07:27:15.898Z,48.69
2022-10-05T07:27:53.221Z,48.82
2022-10-05T07:28:31.838Z,48.60
2022-10-05T07:29:17.604Z,48.71
2022-10-05T07:29:56.076Z,48.48
2022-10-05T07:30:30.079Z,48.88
2022-10-05T07:31:09.656Z,48.64
2022-10-05T07:31:48.061Z,48.58
2022-10-05T07:32:28.040Z,48.46
2022-10-05T07:33:09.676Z,48.50
2022-10-05T07:33:47.496Z,48.40
2022-10-05T07:34:24.632Z,48.57
2022-10-05T07:35:05.156Z,48.48
2022-10-05T07:36:02.352Z,48.80
2022-10-05T07:36:55.540Z,48.65
2022-10-05T07:37:50.637Z,48.45
2022-10-05T07:38:32.159Z,48.76
2022-10-05T07:39:10.615Z,48.59
2022-10-05T07:40:00.291Z,48.43
2022-10-05T07:40:40.669Z,48.43
2022-10-05T07:41:16.556Z,48.59
2022-10-05T07:41:52.660Z,48.84
2022-10-05T07:42:38.471Z,48.85
2022-10-05T07:43:22.499Z,48.52
2022-10-05T07:44:02.887Z,48.90
2022-10-05T07:44:45.156Z,48.78
2022-10-05T07:45:28.247Z,48.67
2022-10-05T07:46:06.129Z,48.60
2022-10-05T07:46:49.527Z,48.86
2022-10-05T07:47:30.333Z,48.61
2022-10-05T07:48:10.247Z,48.40
2022-10-05T07:48:53.285Z,48.36
2022-10-05T07:49:36.674Z,48.72
2022-10-05T07:50:19.227Z,48.31
2022-10-05T07:51:02.072Z,48.47
2022-10-05T07:51:37.477Z,48.26
2022-10-05T07:52:17.470Z,48.54
2022-10-05T07:52:54.610Z,48.46
2022-10-05T07:53:31.572Z,48.59
2022-10-05T07:54:16.724Z,48.58
2022-10-05T07:54:58.796Z,48.57
2022-10-05T07:55:37.983Z,48.38
2022-10-05T07:56:16.390Z,48.36
2022-10-05T07:56:51.049Z,48.33
2022-10-05T07:57:33.257Z,48.24
2022-10-05T07:58:13.232Z,48.17
2022-10-05T07:58:51.197Z,48.20
2022-10-05T07:59:31.293Z,48.37
2022-10-05T08:00:09.008Z,48.24
2022-10-05T08:01:00.814Z,48.57
2022-10-05T08:01:38.662Z,48.63
2022-10-05T08:02:15.857Z,48.21
2022-10-05T08:02:53.272Z,48.16
2022-10-05T08:03:31.513Z,48.45
2022-10-05T08:04:12.030Z,48.58
2022-10-05T08:04:51.471Z,48.21
2022-10-05T08:05:29.584Z,48.66
2022-10-05T08:06:06.056Z,48.23
2022-10-05T08:06:50.399Z,48.55
2022-10-05T08:08:04.843Z,48.22
2022-10-05T08:08:44.991Z,48.12
2022-10-05T08:09:29.253Z,48.10
2022-10-05T08:10:15.088Z,48.21
2022-10-05T08:10:52.511Z,48.31
2022-10-05T08:11:29.951Z,48.02
2022-10-05T08:12:24.268Z,48.21
2022-10-05T08:13:05.603Z,48.31
2022-10-05T08:13:41.588Z,48.23
2022-10-05T08:14:21.096Z,48.43
2022-10-05T08:14:57.272Z,48.16
2022-10-05T08:15:35.434Z,48.07
2022-10-05T08:16:12.707Z,48.36
2022-10-05T08:16:46.863Z,48.04
2022-10-05T08:17:28.553Z,48.20
2022-10-05T08:18:02.500Z,48.13
2022-10-05T08:18:45.660Z,48.26
2022-10-05T08:19:23.669Z,48.31
2022-10-05T08:20:06.333Z,47.96
2022-10-05T08:20:42.780Z,48.04
2022-10-05T08:21:24.037Z,47.79
2022-10-05T08:22:00.373Z,48.13
2022-10-05T08:22:40.049Z,47.71
2022-10-05T08:23:20.598Z,47.97
2022-10-05T08:23:59.011Z,48.07
2022-10-05T08:24:39.356Z,48.24
2022-10-05T08:25:17.729Z,47.71
2022-10-05T08:26:09.750Z,47.92
2022-10-05T08:26:51.872Z,47.70
2022-10-05T08:27:29.104Z,48.02
2022-10-05T08:28:05.556Z,47.78
2022-10-05T08:28:39.692Z,47.56
2022-10-05T08:29:20.095Z,47.61
2022-10-05T08:29:56.961Z,47.84
2022-10-05T08:30:35.784Z,47.82
2022-10-05T08:31:23.715Z,47.68
2022-10-05T08:32:01.145Z,47.63
2022-10-05T08:32:37.261Z,47.33
2022-10-05T08:33:16.808Z,47.44
2022-10-05T08:33:58.703Z,47.90
2022-10-05T08:34:38.863Z,47.68
2022-10-05T08:35:26.263Z,47.84
2022-10-05T08:36:08.500Z,47.35
2022-10-05T08:36:58.789Z,47.32
2022-10-05T08:37:36.532Z,47.24
2022-10-05T08:38:12.579Z,47.30
2022-10-05T08:38:47.551Z,47.51
2022-10-05T08:39:21.267Z,47.18
2022-10-05T08:40:02.056Z,47.66
2022-10-05T08:40:57.116Z,47.37
2022-10-05T08:42:04.302Z,47.25
2022-10-05T08:43:02.329Z,47.12
2022-10-05T08:43:55.278Z,47.46
2022-10-05T08:45:23.541Z,47.26
2022-10-05T08:46:15.183Z,47.01
2022-10-05T08:47:11.411Z,46.99
2022-10-05T08:48:02.068Z,47.01
2022-10-05T08:48:58.245Z,47.39
2022-10-05T08:50:03.305Z,47.37
2022-10-05T08:50:55.727Z,47.11
2022-10-05T08:51:49.894Z,46.94
2022-10-05T08:52:31.944Z,47.04
2022-10-05T08:53:28.555Z,46.99
2022-10-05T08:54:38.578Z,47.26
2022-10-05T08:55:31.368Z,46.99
2022-10-05T08:56:28.982Z,46.92
2022-10-05T08:57:17.305Z,47.23
2022-10-05T08:58:18.137Z,47.25